Time;durP1;ratioP1;P1;durP2;ratioP2;P2;SDS_P1;SDS_P2;PMS_P1;PMS_P2;Temp;Humidity;BMP_temperature;BMP_pressure;BME280_temperature;BME280_humidity;BME280_pressure;Samples;Min_cycle;Max_cycle;Signal;HPM_P1;HPM_P2
2023/05/13 00:02:24;;;;;;;6.70;3.70;;;;;;;10.40;71.00;95593.81;5050528;28;20029;-74
2023/05/13 00:04:49;;;;;;;6.90;4.20;;;;;;;10.63;71.66;95632.31;5052108;28;20060;-75
2023/05/13 00:07:15;;;;;;;10.88;3.40;;;;;;;10.35;70.66;95593.81;5053012;28;20048;-75
2023/05/13 00:09:41;;;;;;;8.98;3.25;;;;;;;10.42;70.54;95604.97;5052387;28;20097;-75
2023/05/13 00:12:06;;;;;;;6.97;3.70;;;;;;;10.46;70.66;95603.38;5052339;28;20067;-75
2023/05/13 00:14:32;;;;;;;6.75;3.40;;;;;;;10.39;69.68;95614.25;5047444;28;20041;-74
2023/05/13 00:16:58;;;;;;;6.05;3.35;;;;;;;10.72;69.61;95651.97;5045615;28;20516;-75
2023/05/13 00:19:24;;;;;;;7.35;3.20;;;;;;;10.75;69.21;95656.78;5052471;28;20029;-75
2023/05/13 00:21:49;;;;;;;7.10;3.00;;;;;;;10.74;68.65;95652.53;5050959;28;20025;-75
2023/05/13 00:24:15;;;;;;;5.38;2.97;;;;;;;10.64;69.14;95663.91;5052197;28;20037;-74
2023/05/13 00:26:40;;;;;;;5.25;2.85;;;;;;;10.23;67.06;95595.88;5050589;28;20033;-75
2023/05/13 00:29:06;;;;;;;8.30;2.90;;;;;;;10.62;67.81;95662.56;5050511;28;20293;-75
2023/05/13 00:31:31;;;;;;;6.22;3.25;;;;;;;10.33;66.36;95603.88;5051203;28;20157;-75
2023/05/13 00:33:57;;;;;;;4.32;2.35;;;;;;;10.49;65.04;95657.75;5052159;28;20454;-75
2023/05/13 00:36:22;;;;;;;8.27;2.63;;;;;;;10.62;66.22;95658.06;5052369;28;20032;-75
2023/05/13 00:38:48;;;;;;;6.05;2.67;;;;;;;10.25;64.34;95607.03;5051225;28;20028;-75
2023/05/13 00:41:13;;;;;;;8.82;2.85;;;;;;;10.48;65.05;95648.19;5050481;28;20178;-75
2023/05/13 00:43:39;;;;;;;8.40;3.00;;;;;;;10.61;63.96;95668.91;5051976;28;20422;-75
2023/05/13 00:46:05;;;;;;;8.88;3.45;;;;;;;10.69;65.14;95658.59;5036506;28;20044;-75
2023/05/13 00:48:32;;;;;;;7.80;2.95;;;;;;;10.57;64.98;95642.13;5045323;28;20112;-75
2023/05/13 00:50:58;;;;;;;5.00;2.92;;;;;;;10.75;64.52;95668.19;5042814;28;20051;-74
2023/05/13 00:53:24;;;;;;;6.65;2.40;;;;;;;10.68;63.85;95672.91;5050252;28;20044;-75
2023/05/13 00:55:49;;;;;;;3.63;2.40;;;;;;;10.55;63.42;95669.97;5047613;28;20033;-75
2023/05/13 00:58:16;;;;;;;7.38;3.40;;;;;;;10.71;64.06;95659.13;5047054;28;20059;-75
2023/05/13 01:01:24;;;;;;;7.47;2.50;;;;;;;10.71;64.12;95645.88;5051393;28;20079;-75
2023/05/13 01:04:05;;;;;;;3.78;2.38;;;;;;;10.61;63.76;95643.19;5044460;28;20051;-76
2023/05/13 01:06:40;;;;;;;7.55;2.75;;;;;;;10.47;62.99;95636.78;5052007;28;20063;-76
2023/05/13 01:09:43;;;;;;;6.80;2.65;;;;;;;10.52;64.00;95650.09;5050719;28;20033;-76
2023/05/13 01:12:15;;;;;;;5.10;2.63;;;;;;;10.48;61.97;95645.56;5029853;28;20423;-76
2023/05/13 01:14:48;;;;;;;2.97;2.35;;;;;;;10.43;62.26;95625.13;5043507;28;20108;-76
2023/05/13 01:17:25;;;;;;;5.60;2.50;;;;;;;10.61;64.23;95645.03;5041134;28;20503;-75
2023/05/13 01:19:56;;;;;;;5.63;2.90;;;;;;;10.52;64.62;95646.63;5056856;28;20090;-76
2023/05/13 01:22:21;;;;;;;6.40;2.90;;;;;;;9.85;64.56;95542.22;5054120;28;20072;-75
2023/05/13 01:24:49;;;;;;;4.25;2.70;;;;;;;9.98;63.48;95594.75;5050918;28;20044;-76
2023/05/13 01:27:15;;;;;;;4.75;2.40;;;;;;;10.62;62.88;95692.53;5054405;28;20093;-76
2023/05/13 01:29:41;;;;;;;6.03;2.95;;;;;;;10.61;62.83;95669.72;5054363;28;20084;-76
2023/05/13 01:32:09;;;;;;;4.50;2.28;;;;;;;10.71;63.49;95674.25;5056778;28;20047;-75
2023/05/13 01:34:37;;;;;;;9.80;2.90;;;;;;;10.58;62.37;95669.47;5055738;28;20033;-76
2023/05/13 01:37:03;;;;;;;4.82;2.47;;;;;;;10.84;63.20;95685.16;5054602;28;20051;-76
2023/05/13 01:39:30;;;;;;;14.07;3.08;;;;;;;10.81;63.13;95658.38;5050975;28;20132;-76
2023/05/13 01:41:56;;;;;;;7.13;2.50;;;;;;;10.90;62.98;95677.22;5054586;28;20429;-76
2023/05/13 01:44:21;;;;;;;3.67;2.65;;;;;;;10.91;62.82;95682.25;5055720;28;20040;-76
2023/05/13 01:46:49;;;;;;;4.10;2.53;;;;;;;11.07;62.29;95691.03;5054048;28;20033;-76
2023/05/13 01:49:15;;;;;;;4.05;2.60;;;;;;;11.11;63.01;95682.28;5055357;28;20032;-76
2023/05/13 01:51:40;;;;;;;6.47;2.88;;;;;;;11.15;63.55;95683.34;5044500;28;20032;-76
2023/05/13 01:54:06;;;;;;;3.67;2.22;;;;;;;11.09;63.95;95673.00;5053413;28;20040;-76
2023/05/13 01:56:31;;;;;;;3.58;2.58;;;;;;;11.24;64.28;95678.31;5052228;28;20021;-76
2023/05/13 01:58:57;;;;;;;6.05;2.80;;;;;;;10.79;64.68;95602.13;5047309;28;20037;-76
2023/05/13 02:01:22;;;;;;;6.07;2.88;;;;;;;11.06;63.59;95644.34;5043922;28;20033;-76
2023/05/13 02:03:48;;;;;;;3.65;2.35;;;;;;;11.27;62.77;95688.41;5054115;28;20043;-76
2023/05/13 02:06:13;;;;;;;5.18;2.97;;;;;;;10.99;62.60;95641.94;5054063;28;20070;-76
2023/05/13 02:08:39;;;;;;;7.13;2.92;;;;;;;11.26;64.02;95680.72;5052986;28;20563;-76
2023/05/13 02:11:04;;;;;;;4.15;2.70;;;;;;;11.24;64.52;95680.97;5053851;28;20040;-76
2023/05/13 02:13:30;;;;;;;7.75;3.42;;;;;;;11.11;63.37;95657.59;5053562;28;20167;-76
2023/05/13 02:15:55;;;;;;;6.57;2.25;;;;;;;11.25;63.30;95684.41;5052761;28;20157;-76
2023/05/13 02:18:21;;;;;;;4.40;2.40;;;;;;;11.14;62.73;95657.06;5053747;28;20507;-76
2023/05/13 02:20:46;;;;;;;3.53;2.60;;;;;;;10.32;62.89;95543.97;5039007;28;20172;-76
2023/05/13 02:23:13;;;;;;;5.05;2.65;;;;;;;11.09;61.56;95668.47;5051982;28;20047;-77
2023/05/13 02:25:39;;;;;;;3.90;2.53;;;;;;;11.28;61.76;95687.38;5052037;28;20880;-76
2023/05/13 02:28:05;;;;;;;5.45;2.22;;;;;;;10.91;62.71;95646.97;5052848;28;20025;-76
2023/05/13 02:30:30;;;;;;;5.38;3.10;;;;;;;11.02;62.16;95657.34;5051851;28;20041;-76
2023/05/13 02:32:56;;;;;;;3.10;2.30;;;;;;;10.87;61.34;95649.34;5052213;28;20047;-76
2023/05/13 02:35:23;;;;;;;3.92;2.55;;;;;;;11.14;61.75;95681.75;5052020;28;20119;-76
2023/05/13 02:37:48;;;;;;;6.68;2.90;;;;;;;10.92;61.40;95648.56;5053260;28;20037;-76
2023/05/13 02:40:14;;;;;;;6.13;2.58;;;;;;;11.05;63.16;95672.75;5053847;28;20033;-76
2023/05/13 02:42:39;;;;;;;5.93;2.97;;;;;;;10.94;64.44;95655.19;5053426;28;20025;-76
2023/05/13 02:45:06;;;;;;;7.53;2.72;;;;;;;11.16;64.88;95694.78;5053093;28;20037;-76
2023/05/13 02:47:31;;;;;;;5.28;2.72;;;;;;;11.20;63.10;95704.63;5053291;28;20033;-76
2023/05/13 02:49:57;;;;;;;13.13;2.63;;;;;;;10.98;63.73;95658.94;5051960;28;20036;-76
2023/05/13 02:52:22;;;;;;;4.82;2.95;;;;;;;11.03;64.11;95666.09;5052094;28;20108;-76
2023/05/13 02:54:48;;;;;;;7.90;3.10;;;;;;;10.88;63.70;95652.81;5048892;28;20040;-76
2023/05/13 02:57:13;;;;;;;9.32;3.75;;;;;;;10.88;63.43;95668.72;5051754;28;20037;-77
2023/05/13 02:59:39;;;;;;;7.63;3.55;;;;;;;11.02;63.37;95699.81;5053257;28;20087;-77
2023/05/13 03:02:04;;;;;;;5.75;3.38;;;;;;;10.98;64.02;95695.28;5053114;28;20033;-77
2023/05/13 03:04:30;;;;;;;4.70;3.10;;;;;;;11.13;64.15;95722.66;5053131;28;20037;-77
2023/05/13 03:06:55;;;;;;;5.00;3.10;;;;;;;11.10;64.23;95723.16;5049320;28;20091;-77
2023/05/13 03:09:21;;;;;;;8.38;3.25;;;;;;;10.99;63.08;95710.94;5050151;28;20068;-77
2023/05/13 03:11:46;;;;;;;7.57;3.55;;;;;;;10.97;63.41;95701.66;5051779;28;20611;-77
2023/05/13 03:14:12;;;;;;;6.25;3.13;;;;;;;11.10;63.65;95725.81;5053452;28;20294;-77
2023/05/13 03:16:37;;;;;;;7.65;3.13;;;;;;;11.01;63.32;95718.63;5049344;28;20068;-77
2023/05/13 03:19:02;;;;;;;5.85;3.63;;;;;;;11.03;63.32;95719.97;5040463;28;20043;-77
2023/05/13 03:21:28;;;;;;;7.43;3.67;;;;;;;10.79;63.44;95689.66;5051556;28;20155;-77
2023/05/13 03:23:53;;;;;;;9.63;3.42;;;;;;;10.70;63.39;95664.69;5051568;28;20037;-77
2023/05/13 03:26:20;;;;;;;8.63;3.70;;;;;;;10.95;64.10;95709.88;5051445;28;20033;-77
2023/05/13 03:28:45;;;;;;;8.70;3.92;;;;;;;11.04;62.72;95726.88;5052353;28;20049;-77
2023/05/13 03:31:11;;;;;;;11.13;4.68;;;;;;;10.94;64.24;95707.47;5052595;28;20078;-77
2023/05/13 03:33:37;;;;;;;10.18;4.93;;;;;;;11.06;64.99;95732.69;5051311;28;20135;-77
2023/05/13 03:36:03;;;;;;;11.38;5.50;;;;;;;10.95;64.75;95715.19;5052521;28;20547;-77
2023/05/13 03:38:28;;;;;;;12.35;5.47;;;;;;;10.72;64.47;95674.00;5050848;28;20032;-77
2023/05/13 03:40:54;;;;;;;14.20;6.35;;;;;;;11.01;64.04;95729.25;5050460;28;20105;-77
2023/05/13 03:43:19;;;;;;;13.85;6.05;;;;;;;10.14;63.61;95587.66;5036130;28;20028;-77
2023/05/13 03:45:47;;;;;;;15.18;6.53;;;;;;;10.87;62.67;95704.28;5038877;28;20060;-77
2023/05/13 03:48:12;;;;;;;11.85;5.72;;;;;;;10.76;62.93;95690.97;5050819;28;20423;-77
2023/05/13 03:50:38;;;;;;;13.50;6.65;;;;;;;10.88;63.05;95703.22;5050864;28;20036;-77
2023/05/13 03:53:03;;;;;;;13.05;6.00;;;;;;;11.16;63.83;95739.91;5051165;28;20029;-77
2023/05/13 03:55:29;;;;;;;17.08;7.22;;;;;;;11.10;64.94;95728.47;5051837;28;20079;-77
2023/05/13 03:57:54;;;;;;;15.80;7.32;;;;;;;10.48;64.80;95635.75;5052294;28;20033;-77
2023/05/13 04:00:20;;;;;;;20.63;7.50;;;;;;;10.57;64.38;95663.34;5052012;28;20021;-77
2023/05/13 04:02:45;;;;;;;20.63;7.60;;;;;;;11.29;64.43;95760.63;5052641;28;20099;-77
2023/05/13 04:05:12;;;;;;;19.88;6.50;;;;;;;11.20;63.41;95746.28;5034136;28;20032;-77
2023/05/13 04:07:38;;;;;;;14.20;5.85;;;;;;;11.16;62.77;95745.19;5050988;28;20029;-77
2023/05/13 04:10:04;;;;;;;12.35;5.40;;;;;;;11.17;64.01;95752.91;5051705;28;20500;-77
2023/05/13 04:12:30;;;;;;;10.80;4.82;;;;;;;11.15;63.66;95755.03;5050074;28;20026;-77
2023/05/13 04:14:55;;;;;;;9.30;4.38;;;;;;;11.32;63.87;95776.03;5052093;28;20036;-77
2023/05/13 04:17:21;;;;;;;10.15;4.78;;;;;;;11.23;63.74;95751.06;5048027;28;20025;-77
2023/05/13 04:19:46;;;;;;;8.35;4.47;;;;;;;11.08;62.80;95735.91;5048650;28;20025;-77
2023/05/13 04:22:11;;;;;;;9.73;4.35;;;;;;;11.40;62.51;95780.03;5050760;28;20021;-77
2023/05/13 04:24:37;;;;;;;8.38;3.90;;;;;;;11.18;63.30;95741.25;5039312;28;20043;-77
2023/05/13 04:27:02;;;;;;;9.95;4.75;;;;;;;11.41;63.74;95779.78;5051653;28;20033;-77
2023/05/13 04:29:28;;;;;;;7.93;4.38;;;;;;;11.28;63.47;95769.66;5051085;28;20061;-77
2023/05/13 04:31:53;;;;;;;8.00;3.75;;;;;;;11.43;64.01;95787.47;5050692;28;20033;-77
2023/05/13 04:34:19;;;;;;;6.82;4.18;;;;;;;11.08;63.94;95732.44;5051216;28;20028;-77
2023/05/13 04:36:45;;;;;;;11.38;4.32;;;;;;;10.51;63.15;95637.88;5050727;28;20020;-77
2023/05/13 04:39:10;;;;;;;9.43;3.63;;;;;;;11.44;62.82;95792.50;5050689;28;20059;-77
2023/05/13 04:41:36;;;;;;;10.25;4.25;;;;;;;11.34;62.46;95789.84;5050615;28;20048;-77
2023/05/13 04:44:01;;;;;;;8.32;3.75;;;;;;;11.13;62.92;95749.19;5044710;28;20053;-77
2023/05/13 04:46:27;;;;;;;11.80;4.38;;;;;;;11.38;62.77;95780.28;5047279;28;20411;-77
2023/05/13 04:48:52;;;;;;;6.55;3.97;;;;;;;11.26;62.78;95753.19;5050730;28;20419;-77
2023/05/13 04:51:18;;;;;;;7.40;3.22;;;;;;;11.52;61.78;95797.31;5052664;28;20762;-77
2023/05/13 04:53:43;;;;;;;9.77;4.90;;;;;;;11.37;62.45;95776.03;5054442;28;20033;-77
2023/05/13 04:56:09;;;;;;;7.75;3.15;;;;;;;11.44;62.86;95781.88;5055560;28;20083;-77
2023/05/13 04:58:35;;;;;;;9.27;4.30;;;;;;;11.47;62.23;95781.38;5054210;28;20476;-77
2023/05/13 05:01:00;;;;;;;13.40;4.20;;;;;;;11.64;62.37;95797.06;5055059;28;20044;-77
2023/05/13 05:03:26;;;;;;;6.75;4.32;;;;;;;11.44;62.34;95760.63;5053493;28;20111;-77
2023/05/13 05:05:51;;;;;;;7.18;4.40;;;;;;;10.78;61.95;95638.47;5054859;28;20405;-77
2023/05/13 05:08:17;;;;;;;8.50;4.22;;;;;;;11.68;61.83;95770.75;5053517;28;20044;-77
2023/05/13 05:10:42;;;;;;;13.13;4.82;;;;;;;11.58;61.81;95751.09;5054659;28;20146;-77
2023/05/13 05:13:09;;;;;;;13.85;5.20;;;;;;;11.45;61.89;95732.22;5055357;28;20179;-77
2023/05/13 05:15:34;;;;;;;13.82;4.60;;;;;;;11.87;61.46;95783.28;5054628;28;20063;-77
2023/05/13 05:18:00;;;;;;;10.93;4.40;;;;;;;11.83;61.74;95776.91;5055757;28;20029;-77
2023/05/13 05:20:25;;;;;;;8.77;3.80;;;;;;;11.88;60.96;95778.78;5055406;28;20059;-77
2023/05/13 05:22:51;;;;;;;7.55;3.97;;;;;;;11.80;58.18;95761.50;5055304;28;20108;-77
2023/05/13 05:25:16;;;;;;;8.02;4.15;;;;;;;11.83;57.18;95765.47;5053985;28;20480;-77
2023/05/13 05:27:42;;;;;;;7.68;4.00;;;;;;;11.77;57.34;95779.81;5053822;28;20093;-77
2023/05/13 05:30:09;;;;;;;6.72;4.20;;;;;;;11.66;57.69;95755.09;5053586;28;20045;-77
2023/05/13 05:32:34;;;;;;;8.43;4.25;;;;;;;11.85;56.81;95776.63;5053792;28;20028;-77
2023/05/13 05:35:01;;;;;;;8.40;4.85;;;;;;;11.80;57.68;95755.38;5054967;28;20063;-77
2023/05/13 05:37:28;;;;;;;8.00;4.60;;;;;;;11.88;59.30;95762.81;5054999;28;20108;-77
2023/05/13 05:39:53;;;;;;;13.57;5.57;;;;;;;11.91;60.01;95755.09;5053985;28;20053;-77
2023/05/13 05:42:18;;;;;;;7.55;4.15;;;;;;;12.03;59.05;95754.03;5054670;28;20032;-77
2023/05/13 05:44:44;;;;;;;12.07;4.22;;;;;;;11.91;56.89;95783.53;5055100;28;20043;-77
2023/05/13 05:47:09;;;;;;;9.30;3.63;;;;;;;12.03;56.53;95777.97;5053533;28;20025;-77
2023/05/13 05:49:35;;;;;;;6.00;3.67;;;;;;;11.83;56.34;95734.38;5053191;28;20043;-76
2023/05/13 05:52:00;;;;;;;11.48;4.38;;;;;;;12.07;55.40;95784.31;5055269;28;20051;-76
2023/05/13 05:54:26;;;;;;;7.55;3.70;;;;;;;11.89;53.75;95793.66;5054717;28;20033;-76
2023/05/13 05:56:52;;;;;;;6.10;3.35;;;;;;;11.89;54.74;95769.75;5054694;28;20071;-76
2023/05/13 05:59:17;;;;;;;13.23;3.53;;;;;;;12.21;54.32;95796.00;5052639;28;20032;-76
2023/05/13 06:01:43;;;;;;;9.73;4.00;;;;;;;12.31;54.61;95785.34;5052655;28;20115;-76
2023/05/13 06:04:08;;;;;;;8.57;4.32;;;;;;;12.45;55.61;95801.53;5054735;28;20407;-76
2023/05/13 06:06:35;;;;;;;12.48;4.72;;;;;;;12.34;54.38;95790.16;5053147;28;20029;-76
2023/05/13 06:09:00;;;;;;;10.60;4.38;;;;;;;12.62;55.52;95792.19;5053872;28;20152;-76
2023/05/13 06:11:26;;;;;;;14.40;4.70;;;;;;;12.51;54.03;95779.22;5055184;28;20104;-76
2023/05/13 06:13:52;;;;;;;18.38;5.40;;;;;;;12.64;54.66;95795.38;5054044;28;20040;-76
2023/05/13 06:16:18;;;;;;;15.43;5.88;;;;;;;12.85;54.86;95793.44;5055238;28;20407;-76
2023/05/13 06:18:43;;;;;;;16.38;5.65;;;;;;;12.98;55.72;95782.19;5052604;28;20066;-76
2023/05/13 06:21:09;;;;;;;11.38;4.65;;;;;;;13.02;56.50;95774.47;5054607;28;20032;-77
2023/05/13 06:23:34;;;;;;;13.18;4.15;;;;;;;13.28;55.04;95781.28;5053219;28;20033;-76
2023/05/13 06:26:00;;;;;;;14.00;4.88;;;;;;;13.41;52.46;95803.84;5052692;28;20514;-76
2023/05/13 06:28:25;;;;;;;18.13;4.57;;;;;;;13.02;51.58;95788.59;5053792;28;20400;-76
2023/05/13 06:30:50;;;;;;;11.77;3.85;;;;;;;13.28;52.13;95791.94;5052841;28;20029;-76
2023/05/13 06:33:16;;;;;;;9.88;3.13;;;;;;;12.76;51.15;95750.63;5053690;28;20434;-76
2023/05/13 06:35:46;;;;;;;8.40;3.70;;;;;;;13.14;51.48;95799.72;5054287;28;20067;-77
2023/05/13 06:38:13;;;;;;;9.05;3.95;;;;;;;13.21;51.04;95804.75;5054019;28;20033;-77
2023/05/13 06:40:38;;;;;;;5.35;3.25;;;;;;;13.56;51.29;95801.09;5054490;28;20422;-77
2023/05/13 06:43:04;;;;;;;8.43;3.08;;;;;;;13.41;50.45;95809.19;5052832;28;20522;-77
2023/05/13 06:45:29;;;;;;;12.88;3.50;;;;;;;13.56;50.22;95795.78;5054324;28;20107;-76
2023/05/13 06:47:55;;;;;;;10.80;3.30;;;;;;;13.91;50.99;95814.16;5052842;28;20024;-77
2023/05/13 06:50:20;;;;;;;4.15;2.40;;;;;;;13.85;51.03;95764.63;5052532;28;20028;-77
2023/05/13 06:52:46;;;;;;;6.10;3.05;;;;;;;14.12;48.83;95788.13;5054573;28;20071;-77
2023/05/13 06:55:12;;;;;;;9.32;3.22;;;;;;;14.03;47.96;95765.03;5054091;28;20115;-77
2023/05/13 06:57:38;;;;;;;9.30;2.83;;;;;;;14.18;47.66;95781.69;5052492;28;20063;-77
2023/05/13 07:00:04;;;;;;;10.02;3.10;;;;;;;14.31;48.74;95782.88;5053713;28;20037;-77
2023/05/13 07:02:30;;;;;;;5.65;2.67;;;;;;;14.42;50.35;95795.06;5054210;28;20055;-77
2023/05/13 07:04:55;;;;;;;7.97;3.22;;;;;;;14.49;47.84;95800.88;5052377;28;20036;-77
2023/05/13 07:07:21;;;;;;;4.93;2.67;;;;;;;14.61;48.15;95816.50;5052326;28;20407;-77
2023/05/13 07:09:46;;;;;;;5.18;2.80;;;;;;;14.71;48.34;95805.72;5051969;28;20037;-76
2023/05/13 07:12:11;;;;;;;11.27;3.33;;;;;;;14.65;46.77;95790.81;5052646;28;20033;-76
2023/05/13 07:14:37;;;;;;;12.80;3.63;;;;;;;14.81;47.06;95813.59;5051738;28;20401;-76
2023/05/13 07:17:03;;;;;;;9.70;3.25;;;;;;;14.59;46.04;95807.97;5052745;28;20077;-76
2023/05/13 07:19:29;;;;;;;9.32;3.53;;;;;;;14.35;45.47;95783.09;5051485;28;20037;-77
2023/05/13 07:21:55;;;;;;;8.68;3.70;;;;;;;14.46;44.53;95801.44;5053305;28;20027;-76
2023/05/13 07:24:20;;;;;;;4.20;2.35;;;;;;;14.35;44.36;95788.44;5051152;28;20029;-77
2023/05/13 07:26:46;;;;;;;7.03;2.90;;;;;;;14.01;45.95;95813.28;5052896;28;20032;-77
2023/05/13 07:29:11;;;;;;;5.72;3.10;;;;;;;14.08;46.94;95843.09;5052110;28;20060;-77
2023/05/13 07:31:36;;;;;;;6.28;3.72;;;;;;;13.68;45.98;95812.19;5045612;28;20050;-77
2023/05/13 07:34:02;;;;;;;9.00;3.55;;;;;;;14.06;45.43;95839.13;5053194;28;20119;-77
2023/05/13 07:36:28;;;;;;;6.97;3.78;;;;;;;14.38;45.87;95838.59;5053418;28;20063;-77
2023/05/13 07:38:53;;;;;;;16.27;4.43;;;;;;;14.18;46.23;95807.56;5039845;28;20089;-77
2023/05/13 07:41:18;;;;;;;11.55;4.57;;;;;;;14.23;45.78;95799.50;5045161;28;20559;-77
2023/05/13 07:43:44;;;;;;;7.32;3.70;;;;;;;14.36;45.42;95808.72;5052240;28;20033;-76
2023/05/13 07:46:09;;;;;;;8.40;3.67;;;;;;;14.78;45.94;95824.06;5051230;28;20392;-76
2023/05/13 07:48:35;;;;;;;12.77;4.60;;;;;;;14.83;47.41;95829.34;5051365;28;20086;-76
2023/05/13 07:51:00;;;;;;;20.15;5.75;;;;;;;14.85;46.96;95817.31;5052072;28;20511;-77
2023/05/13 07:53:26;;;;;;;9.27;5.43;;;;;;;14.79;47.58;95812.31;5051697;28;20029;-77
2023/05/13 07:55:51;;;;;;;13.68;6.32;;;;;;;15.07;47.69;95824.78;5051719;28;20043;-77
2023/05/13 07:58:17;;;;;;;10.48;6.07;;;;;;;15.00;48.05;95824.34;5051116;28;20174;-77
2023/05/13 08:00:43;;;;;;;9.38;5.68;;;;;;;15.10;48.64;95839.47;5052942;28;20032;-77
2023/05/13 08:03:08;;;;;;;12.32;5.22;;;;;;;14.52;48.44;95827.00;5052621;28;20040;-77
2023/05/13 08:05:34;;;;;;;9.05;5.53;;;;;;;14.40;48.11;95818.59;5051212;28;20080;-77
2023/05/13 08:08:00;;;;;;;12.43;6.18;;;;;;;14.35;50.13;95823.13;5051704;28;20032;-77
2023/05/13 08:10:26;;;;;;;18.02;5.28;;;;;;;13.94;48.99;95812.81;5050261;28;20036;-77
2023/05/13 08:12:56;;;;;;;10.48;4.82;;;;;;;14.23;49.04;95813.63;5052208;28;20049;-77
2023/05/13 08:15:22;;;;;;;10.50;4.28;;;;;;;13.79;49.05;95804.94;5050500;28;20041;-77
2023/05/13 08:17:48;;;;;;;13.95;5.40;;;;;;;13.62;49.14;95767.22;5033537;28;20025;-77
2023/05/13 08:20:14;;;;;;;12.70;5.45;;;;;;;13.86;49.45;95824.88;5050157;28;20043;-77
2023/05/13 08:22:40;;;;;;;9.57;5.47;;;;;;;13.63;50.90;95777.59;5051103;28;20048;-77
2023/05/13 08:25:05;;;;;;;8.90;5.63;;;;;;;14.00;49.69;95798.38;5051545;28;20044;-77
2023/05/13 08:27:31;;;;;;;9.68;5.50;;;;;;;13.57;49.93;95781.38;5054583;28;20040;-77
2023/05/13 08:29:56;;;;;;;14.13;5.82;;;;;;;13.51;50.09;95812.56;5055988;28;20531;-77
2023/05/13 08:32:21;;;;;;;17.55;6.22;;;;;;;12.90;51.89;95742.84;5054343;28;20564;-77
2023/05/13 08:34:47;;;;;;;12.52;6.40;;;;;;;13.14;51.76;95766.97;5056183;28;20060;-76
2023/05/13 08:37:12;;;;;;;11.77;5.60;;;;;;;13.13;51.10;95715.56;5055001;28;20033;-77
2023/05/13 08:39:38;;;;;;;9.00;5.97;;;;;;;13.68;51.32;95771.41;5054486;28;20174;-77
2023/05/13 08:42:07;;;;;;;11.52;5.97;;;;;;;13.71;52.03;95785.00;5055791;28;20029;-77
2023/05/13 08:44:38;;;;;;;12.98;6.80;;;;;;;13.74;53.92;95744.44;5056079;28;20024;-77
2023/05/13 08:47:49;;;;;;;15.63;7.43;;;;;;;14.10;53.66;95776.16;5055002;28;20033;-77
2023/05/13 08:50:16;;;;;;;11.07;6.38;;;;;;;14.23;53.01;95783.50;5033257;28;20041;-77
2023/05/13 08:52:42;;;;;;;15.15;7.82;;;;;;;14.43;52.66;95787.84;5016994;28;20029;-77
2023/05/13 08:55:08;;;;;;;13.52;6.82;;;;;;;13.95;53.68;95706.97;5032468;28;20086;-77
2023/05/13 08:57:34;;;;;;;14.10;7.70;;;;;;;14.34;53.04;95768.19;5054413;28;20045;-77
2023/05/13 08:59:59;;;;;;;19.38;8.02;;;;;;;14.51;53.86;95780.03;5055989;28;20462;-77
2023/05/13 09:02:25;;;;;;;10.30;7.18;;;;;;;14.44;53.75;95750.22;5055706;28;20028;-77
2023/05/13 09:04:53;;;;;;;16.45;8.77;;;;;;;14.62;53.99;95764.72;5055754;28;20067;-77
2023/05/13 09:07:19;;;;;;;17.55;7.00;;;;;;;14.63;54.23;95761.75;5053989;28;20039;-77
2023/05/13 09:09:44;;;;;;;12.50;6.70;;;;;;;14.84;54.58;95764.97;5055324;28;20100;-77
2023/05/13 09:12:10;;;;;;;9.85;6.55;;;;;;;14.68;55.38;95727.00;5055453;28;20418;-77
2023/05/13 09:14:37;;;;;;;14.00;7.70;;;;;;;14.86;55.62;95740.66;5054643;28;20427;-77
2023/05/13 09:17:03;;;;;;;15.63;6.85;;;;;;;15.02;54.42;95771.44;5053527;28;20067;-77
2023/05/13 09:19:28;;;;;;;9.93;6.25;;;;;;;14.96;52.88;95735.97;5053973;28;20033;-77
2023/05/13 09:21:55;;;;;;;11.38;6.25;;;;;;;15.09;52.46;95757.72;5053737;28;20522;-77
2023/05/13 09:24:22;;;;;;;11.15;6.72;;;;;;;15.13;51.67;95777.44;5055880;28;20041;-77
2023/05/13 09:26:49;;;;;;;11.63;6.68;;;;;;;15.13;51.04;95777.44;5055736;28;20033;-77
2023/05/13 09:29:23;;;;;;;12.52;6.93;;;;;;;15.13;51.06;95780.91;5035473;28;20075;-77
2023/05/13 09:31:53;;;;;;;12.00;7.30;;;;;;;15.05;50.84;95785.00;5055311;28;20106;-77
2023/05/13 09:34:30;;;;;;;25.95;7.05;;;;;;;14.81;50.90;95714.81;5054548;28;20507;-77
2023/05/13 09:37:03;;;;;;;14.30;7.60;;;;;;;14.85;51.31;95739.06;5053341;28;20412;-77
2023/05/13 09:39:32;;;;;;;22.05;7.47;;;;;;;15.15;51.71;95748.56;5053963;28;20028;-77
2023/05/13 09:41:59;;;;;;;16.10;7.03;;;;;;;15.27;51.18;95746.25;5053082;28;20036;-77
2023/05/13 09:44:25;;;;;;;10.82;6.95;;;;;;;16.03;50.87;95745.88;5054362;28;20542;-77
2023/05/13 09:46:52;;;;;;;11.65;6.38;;;;;;;16.81;47.99;95718.22;5053281;28;20124;-77
2023/05/13 09:49:21;;;;;;;14.15;5.63;;;;;;;18.06;46.86;95755.09;5055325;28;20106;-77
2023/05/13 09:51:47;;;;;;;13.68;5.97;;;;;;;18.92;43.84;95727.88;5054177;28;20126;-79
2023/05/13 09:54:12;;;;;;;13.90;6.40;;;;;;;19.41;41.96;95746.28;5050737;28;20064;-80
2023/05/13 09:56:37;;;;;;;17.35;7.03;;;;;;;19.95;41.79;95711.78;5051919;28;20035;-79
2023/05/13 09:59:03;;;;;;;11.23;5.63;;;;;;;20.58;40.22;95720.97;5052245;28;20116;-80
2023/05/13 10:01:29;;;;;;;12.32;6.00;;;;;;;21.56;38.98;95699.78;5052308;28;20033;-80
2023/05/13 10:03:55;;;;;;;9.38;5.80;;;;;;;22.32;37.38;95747.22;5050736;28;20028;-81
2023/05/13 10:06:28;;;;;;;10.10;5.72;;;;;;;22.30;36.22;95738.66;5051688;28;20044;-80
2023/05/13 10:09:00;;;;;;;9.25;5.35;;;;;;;22.63;36.78;95746.72;5050444;28;20040;-80
2023/05/13 10:11:26;;;;;;;9.13;5.72;;;;;;;23.34;35.39;95747.09;5049983;28;20037;-80
2023/05/13 10:13:58;;;;;;;9.40;5.55;;;;;;;23.92;34.47;95734.09;5038148;28;20101;-80
2023/05/13 10:16:24;;;;;;;10.35;5.03;;;;;;;24.57;33.58;95746.28;5045004;28;20427;-80
2023/05/13 10:18:50;;;;;;;11.82;5.20;;;;;;;25.06;33.06;95712.63;5051376;28;20507;-80
2023/05/13 10:21:17;;;;;;;9.65;5.07;;;;;;;25.42;33.14;95700.63;5050393;28;20487;-80
2023/05/13 10:23:46;;;;;;;6.40;4.32;;;;;;;25.59;31.64;95702.97;5050002;28;20036;-80
2023/05/13 10:26:11;;;;;;;6.15;4.53;;;;;;;26.32;31.63;95738.19;5033778;28;20519;-80
2023/05/13 10:28:37;;;;;;;8.18;4.68;;;;;;;26.03;30.51;95717.81;5049868;28;20028;-80
2023/05/13 10:31:03;;;;;;;10.40;4.50;;;;;;;25.45;30.54;95714.28;5051646;28;20040;-80
2023/05/13 10:33:29;;;;;;;6.00;3.97;;;;;;;25.44;31.26;95722.78;5049979;28;20032;-80
2023/05/13 10:36:01;;;;;;;8.77;4.55;;;;;;;25.48;31.45;95735.28;5050064;28;20036;-81
2023/05/13 10:38:51;;;;;;;10.88;6.05;;;;;;;24.69;32.47;95728.38;5048710;28;20049;-81
2023/05/13 10:41:49;;;;;;;10.95;5.78;;;;;;;24.57;33.23;95707.53;5049276;28;20036;-81
2023/05/13 10:44:16;;;;;;;7.15;5.40;;;;;;;23.51;33.06;95656.72;5079353;28;20117;-80
2023/05/13 10:46:42;;;;;;;8.90;5.75;;;;;;;22.71;34.82;95740.41;5050388;28;20051;-81
2023/05/13 10:49:14;;;;;;;8.57;5.40;;;;;;;21.04;38.07;95722.81;5048716;28;20555;-80
2023/05/13 10:51:48;;;;;;;9.88;5.68;;;;;;;21.67;37.10;95745.25;5031382;28;20407;-81
2023/05/13 10:54:21;;;;;;;11.10;5.43;;;;;;;21.18;36.80;95645.16;5035625;28;20043;-82
2023/05/13 10:56:57;;;;;;;10.57;5.60;;;;;;;21.21;38.27;95709.22;5050829;28;20067;-80
2023/05/13 10:59:22;;;;;;;10.45;5.88;;;;;;;21.86;37.18;95716.66;5051061;28;20033;-81
2023/05/13 11:01:48;;;;;;;12.40;5.75;;;;;;;22.43;37.57;95744.88;5051203;28;20060;-81
2023/05/13 11:04:19;;;;;;;10.70;5.30;;;;;;;22.62;38.23;95731.63;5049364;28;20021;-81
2023/05/13 11:06:46;;;;;;;8.35;5.93;;;;;;;22.97;35.78;95731.97;5049208;28;20036;-81
2023/05/13 11:09:21;;;;;;;8.23;5.40;;;;;;;23.27;35.11;95716.28;5049275;28;20124;-81
2023/05/13 11:11:54;;;;;;;11.15;5.82;;;;;;;23.91;36.10;95729.00;5049355;28;20094;-80
2023/05/13 11:14:21;;;;;;;10.07;6.03;;;;;;;24.21;35.00;95720.19;5048985;28;20419;-80
2023/05/13 11:16:53;;;;;;;11.68;6.05;;;;;;;24.62;33.41;95718.16;5050406;28;20051;-80
2023/05/13 11:19:31;;;;;;;11.98;6.18;;;;;;;24.84;35.07;95722.94;5045749;28;20033;-80
2023/05/13 11:22:04;;;;;;;8.52;5.57;;;;;;;25.27;32.49;95729.38;5042075;28;20040;-80
2023/05/13 11:24:29;;;;;;;9.18;5.82;;;;;;;25.44;31.39;95714.63;5048943;28;20522;-80
2023/05/13 11:26:57;;;;;;;7.43;5.47;;;;;;;25.42;31.24;95695.97;5048287;28;20033;-80
2023/05/13 11:29:30;;;;;;;12.13;6.25;;;;;;;25.90;30.99;95707.47;5045401;28;20079;-80